createdAt,value
2019-01-04T00:00:10.940Z,958.67
2019-01-04T00:01:10.840Z,958.67
2019-01-04T00:02:10.739Z,958.67
2019-01-04T00:03:10.651Z,958.67
2019-01-04T00:04:10.533Z,958.70
2019-01-04T00:05:10.425Z,958.75
2019-01-04T00:06:10.321Z,958.68
2019-01-04T00:07:10.235Z,958.67
2019-01-04T00:08:10.126Z,958.75
2019-01-04T00:09:10.107Z,958.66
2019-01-04T00:10:09.911Z,958.66
2019-01-04T00:11:09.801Z,958.70
2019-01-04T00:12:09.697Z,958.68
2019-01-04T00:13:09.610Z,958.68
2019-01-04T00:14:09.489Z,958.64
2019-01-04T00:15:09.386Z,958.61
2019-01-04T00:16:09.382Z,958.65
2019-01-04T00:17:09.174Z,958.62
2019-01-04T00:18:09.072Z,958.63
2019-01-04T00:19:08.981Z,958.65
2019-01-04T00:20:08.862Z,958.58
2019-01-04T00:21:08.759Z,958.61
2019-01-04T00:22:08.661Z,958.62
2019-01-04T00:23:08.654Z,958.62
2019-01-04T00:24:08.466Z,958.62
2019-01-04T00:25:08.341Z,958.64
2019-01-04T00:26:08.240Z,958.68
2019-01-04T00:27:08.136Z,958.66
2019-01-04T00:28:08.035Z,958.70
2019-01-04T00:29:07.961Z,958.67
2019-01-04T00:30:07.921Z,958.66
2019-01-04T00:31:07.720Z,958.71
2019-01-04T00:32:07.612Z,958.72
2019-01-04T00:33:07.512Z,958.69
2019-01-04T00:34:07.422Z,958.71
2019-01-04T00:35:07.304Z,958.73
2019-01-04T00:36:07.199Z,958.72
2019-01-04T00:37:07.266Z,958.74
2019-01-04T00:38:06.991Z,958.71
2019-01-04T00:39:06.904Z,958.69
2019-01-04T00:40:06.783Z,958.74
2019-01-04T00:41:06.685Z,958.68
2019-01-04T00:42:06.574Z,958.70
2019-01-04T00:43:06.472Z,958.73
2019-01-04T00:44:06.482Z,958.74
2019-01-04T00:45:06.262Z,958.76
2019-01-04T00:46:06.156Z,958.80
2019-01-04T00:47:06.054Z,958.80
2019-01-04T00:48:05.966Z,958.79
2019-01-04T00:49:05.859Z,958.81
2019-01-04T00:50:05.739Z,958.86
2019-01-04T00:51:05.737Z,958.85
2019-01-04T00:52:05.535Z,958.86
2019-01-04T00:53:05.430Z,958.85
2019-01-04T00:54:05.340Z,958.85
2019-01-04T00:55:05.226Z,958.85
2019-01-04T00:56:05.116Z,958.83
2019-01-04T00:57:05.013Z,958.86
2019-01-04T00:58:05.006Z,958.83
2019-01-04T00:59:04.821Z,958.80
2019-01-04T01:00:04.702Z,958.78
2019-01-04T01:01:04.598Z,958.76
2019-01-04T01:02:04.495Z,958.88
2019-01-04T01:03:04.393Z,958.82
2019-01-04T01:04:04.297Z,958.88
2019-01-04T01:05:04.180Z,958.90
2019-01-04T01:06:04.073Z,958.88
2019-01-04T01:07:03.971Z,958.89
2019-01-04T01:08:03.866Z,958.90
2019-01-04T01:09:03.783Z,958.92
2019-01-04T01:10:03.660Z,958.94
2019-01-04T01:11:03.552Z,958.98
2019-01-04T01:12:03.447Z,958.93
2019-01-04T01:13:03.639Z,958.97
2019-01-04T01:14:03.255Z,958.95
2019-01-04T01:15:03.140Z,959.00
2019-01-04T01:16:03.034Z,958.95
2019-01-04T01:17:02.926Z,959.01
2019-01-04T01:18:02.827Z,959.03
2019-01-04T01:19:02.739Z,959.01
2019-01-04T01:20:02.729Z,958.98
2019-01-04T01:21:02.511Z,958.98
2019-01-04T01:22:02.413Z,959.02
2019-01-04T01:23:02.304Z,959.02
2019-01-04T01:24:02.211Z,959.07
2019-01-04T01:25:02.094Z,959.08
2019-01-04T01:26:02.113Z,959.08
2019-01-04T01:27:01.886Z,959.06
2019-01-04T01:28:01.781Z,959.14
2019-01-04T01:29:01.691Z,959.08
2019-01-04T01:30:01.574Z,959.12
2019-01-04T01:31:01.466Z,959.11
2019-01-04T01:32:01.364Z,959.13
2019-01-04T01:33:01.258Z,959.14
2019-01-04T01:34:01.268Z,959.14
2019-01-04T01:35:01.049Z,959.15
2019-01-04T01:36:00.947Z,959.14
2019-01-04T01:37:00.844Z,959.14
2019-01-04T01:38:00.735Z,959.12
2019-01-04T01:39:00.651Z,959.13
2019-01-04T01:40:00.529Z,959.14
2019-01-04T01:41:00.532Z,959.11
2019-01-04T01:42:00.320Z,959.07
2019-01-04T01:43:00.216Z,959.08
2019-01-04T01:44:00.125Z,959.08
2019-01-04T01:45:00.005Z,959.01
2019-01-04T01:45:59.908Z,959.04
2019-01-04T01:46:59.927Z,959.01
2019-01-04T01:47:59.693Z,959.01
2019-01-04T01:48:59.604Z,959.00
2019-01-04T01:49:59.483Z,959.01
2019-01-04T01:50:59.379Z,959.03
2019-01-04T01:51:59.274Z,959.00
2019-01-04T01:52:59.170Z,959.01
2019-01-04T01:53:59.086Z,959.02
2019-01-04T01:54:58.963Z,959.00
2019-01-04T01:55:58.861Z,959.05
2019-01-04T01:56:58.754Z,959.08
2019-01-04T01:57:58.650Z,959.04
2019-01-04T01:58:58.568Z,959.08
2019-01-04T01:59:58.442Z,958.99
2019-01-04T02:00:58.335Z,959.06
2019-01-04T02:01:58.234Z,959.06
2019-01-04T02:02:58.127Z,959.03
2019-01-04T02:03:58.022Z,959.08
2019-01-04T02:04:57.934Z,959.09
2019-01-04T02:05:57.816Z,959.09
2019-01-04T02:06:57.714Z,959.11
2019-01-04T02:07:57.606Z,959.12
2019-01-04T02:08:57.502Z,959.10
2019-01-04T02:09:57.418Z,959.09
2019-01-04T02:10:57.290Z,959.10
2019-01-04T02:11:57.190Z,959.07
2019-01-04T02:12:57.085Z,959.05
2019-01-04T02:13:56.983Z,959.07
2019-01-04T02:14:56.890Z,959.12
2019-01-04T02:15:56.769Z,959.08
2019-01-04T02:16:56.664Z,959.10
2019-01-04T02:17:56.565Z,959.10
2019-01-04T02:18:56.460Z,959.08
2019-01-04T02:19:56.367Z,959.09
2019-01-04T02:20:56.249Z,959.09
2019-01-04T02:21:56.143Z,959.09
2019-01-04T02:22:56.042Z,959.18
2019-01-04T02:23:55.940Z,959.18
2019-01-04T02:24:55.847Z,959.20
2019-01-04T02:25:55.727Z,959.24
2019-01-04T02:26:55.623Z,959.19
2019-01-04T02:27:55.546Z,959.22
2019-01-04T02:28:55.416Z,959.18
2019-01-04T02:29:55.327Z,959.17
2019-01-04T02:30:55.208Z,959.19
2019-01-04T02:31:55.103Z,959.13
2019-01-04T02:32:55.001Z,959.09
2019-01-04T02:33:54.895Z,959.16
2019-01-04T02:34:54.806Z,959.12
2019-01-04T02:35:54.686Z,959.13
2019-01-04T02:36:54.582Z,959.13
2019-01-04T02:37:54.476Z,959.11
2019-01-04T02:38:54.374Z,959.14
2019-01-04T02:39:54.282Z,959.14
2019-01-04T02:40:54.163Z,959.19
2019-01-04T02:41:54.058Z,959.16
2019-01-04T02:42:53.954Z,959.18
2019-01-04T02:43:53.852Z,959.18
2019-01-04T02:44:53.808Z,959.19
2019-01-04T02:45:53.647Z,959.20
2019-01-04T02:46:53.541Z,959.23
2019-01-04T02:47:53.433Z,959.18
2019-01-04T02:48:53.332Z,959.18
2019-01-04T02:49:53.239Z,959.20
2019-01-04T02:50:53.121Z,959.21
2019-01-04T02:51:53.017Z,959.10
2019-01-04T02:52:52.921Z,959.08
2019-01-04T02:53:52.806Z,959.12
2019-01-04T02:54:52.724Z,959.10
2019-01-04T02:55:52.600Z,959.13
2019-01-04T02:56:52.497Z,959.14
2019-01-04T02:57:52.391Z,959.18
2019-01-04T02:58:52.288Z,959.12
2019-01-04T02:59:52.196Z,959.08
2019-01-04T03:00:52.078Z,959.14
2019-01-04T03:01:51.975Z,959.04
2019-01-04T03:02:51.868Z,959.04
2019-01-04T03:03:51.768Z,958.95
2019-01-04T03:04:51.699Z,958.99
2019-01-04T03:05:51.557Z,958.98
2019-01-04T03:06:51.458Z,959.00
2019-01-04T03:07:51.352Z,958.96
2019-01-04T03:08:51.247Z,958.94
2019-01-04T03:09:51.159Z,958.93
2019-01-04T03:10:51.134Z,958.85
2019-01-04T03:11:50.930Z,958.90
2019-01-04T03:12:50.831Z,958.88
2019-01-04T03:13:50.724Z,958.83
2019-01-04T03:14:50.646Z,958.84
2019-01-04T03:15:50.517Z,958.80
2019-01-04T03:16:50.413Z,958.81
2019-01-04T03:17:50.405Z,958.78
2019-01-04T03:18:50.203Z,958.77
2019-01-04T03:19:50.121Z,958.80
2019-01-04T03:20:49.996Z,958.80
2019-01-04T03:21:49.895Z,958.84
2019-01-04T03:22:49.812Z,958.85
2019-01-04T03:23:49.687Z,958.86
2019-01-04T03:24:49.699Z,958.86
2019-01-04T03:25:49.481Z,958.96
2019-01-04T03:26:49.373Z,958.94
2019-01-04T03:27:49.268Z,958.96
2019-01-04T03:28:49.164Z,958.96
2019-01-04T03:29:49.076Z,958.96
2019-01-04T03:30:48.960Z,958.98
2019-01-04T03:31:48.958Z,958.97
2019-01-04T03:32:48.746Z,958.97
2019-01-04T03:33:48.641Z,958.99
2019-01-04T03:34:48.558Z,958.96
2019-01-04T03:35:48.433Z,958.98
2019-01-04T03:36:48.328Z,958.99
2019-01-04T03:37:48.233Z,959.01
2019-01-04T03:38:48.227Z,958.99
2019-01-04T03:39:48.034Z,958.97
2019-01-04T03:40:47.915Z,959.01
2019-01-04T03:41:47.808Z,959.02
2019-01-04T03:42:47.708Z,959.02
2019-01-04T03:43:47.599Z,959.01
2019-01-04T03:44:47.516Z,959.01
2019-01-04T03:45:47.491Z,958.97
2019-01-04T03:46:47.287Z,958.98
2019-01-04T03:47:47.182Z,958.98
2019-01-04T03:48:47.081Z,958.92
2019-01-04T03:49:46.998Z,958.95
2019-01-04T03:50:46.871Z,958.96
2019-01-04T03:51:46.767Z,958.93
2019-01-04T03:52:46.768Z,958.89
2019-01-04T03:53:46.563Z,958.86
2019-01-04T03:54:46.460Z,958.85
2019-01-04T03:55:46.367Z,958.81
2019-01-04T03:56:46.250Z,958.84
2019-01-04T03:57:46.145Z,958.87
2019-01-04T03:58:46.044Z,958.89
2019-01-04T03:59:46.040Z,958.92
2019-01-04T04:00:45.852Z,958.86
2019-01-04T04:01:45.731Z,958.83
2019-01-04T04:02:45.629Z,958.89
2019-01-04T04:03:45.522Z,958.89
2019-01-04T04:04:45.417Z,958.95
2019-01-04T04:05:49.023Z,958.92
2019-01-04T04:06:45.307Z,958.91
2019-01-04T04:07:45.105Z,958.92
2019-01-04T04:08:44.997Z,958.96
2019-01-04T04:09:44.902Z,958.91
2019-01-04T04:10:44.807Z,958.88
2019-01-04T04:11:44.686Z,958.90
2019-01-04T04:12:44.706Z,958.86
2019-01-04T04:13:44.482Z,958.91
2019-01-04T04:14:44.378Z,958.92
2019-01-04T04:15:44.286Z,958.90
2019-01-04T04:16:44.166Z,958.89
2019-01-04T04:17:44.061Z,958.90
2019-01-04T04:18:43.957Z,958.88
2019-01-04T04:19:43.855Z,958.88
2019-01-04T04:20:44.179Z,958.81
2019-01-04T04:21:43.644Z,958.79
2019-01-04T04:22:43.540Z,958.85
2019-01-04T04:23:43.436Z,958.84
2019-01-04T04:24:43.331Z,958.85
2019-01-04T04:25:43.245Z,958.83
2019-01-04T04:26:43.127Z,958.83
2019-01-04T04:27:43.026Z,958.87
2019-01-04T04:28:42.920Z,958.83
2019-01-04T04:29:42.815Z,958.83
2019-01-04T04:30:42.728Z,958.80
2019-01-04T04:31:42.606Z,958.78
2019-01-04T04:32:42.499Z,958.80
2019-01-04T04:33:42.400Z,958.83
2019-01-04T04:34:42.295Z,958.82
2019-01-04T04:35:42.208Z,958.79
2019-01-04T04:36:42.090Z,958.74
2019-01-04T04:37:41.980Z,958.76
2019-01-04T04:38:41.881Z,958.71
2019-01-04T04:39:41.770Z,958.66
2019-01-04T04:40:41.689Z,958.67
2019-01-04T04:41:41.567Z,958.68
2019-01-04T04:42:41.463Z,958.74
2019-01-04T04:43:41.363Z,958.68
2019-01-04T04:44:41.253Z,958.68
2019-01-04T04:45:41.166Z,958.72
2019-01-04T04:46:41.047Z,958.71
2019-01-04T04:47:40.940Z,958.73
2019-01-04T04:48:40.839Z,958.76
2019-01-04T04:49:40.731Z,958.74
2019-01-04T04:50:40.647Z,958.73
2019-01-04T04:51:40.523Z,958.76
2019-01-04T04:52:40.422Z,958.76
2019-01-04T04:53:40.317Z,958.76
2019-01-04T04:54:40.222Z,958.74
2019-01-04T04:55:40.124Z,958.73
2019-01-04T04:56:40.008Z,958.80
2019-01-04T04:57:39.907Z,958.78
2019-01-04T04:58:39.800Z,958.74
2019-01-04T04:59:39.695Z,958.74
2019-01-04T05:00:39.604Z,958.71
2019-01-04T05:01:39.493Z,958.73
2019-01-04T05:02:39.381Z,958.72
2019-01-04T05:03:39.277Z,958.72
2019-01-04T05:04:39.173Z,958.74
2019-01-04T05:05:39.091Z,958.68
2019-01-04T05:06:38.960Z,958.65
2019-01-04T05:07:38.862Z,958.63
2019-01-04T05:08:38.761Z,958.68
2019-01-04T05:09:38.652Z,958.68
2019-01-04T05:10:38.567Z,958.63
2019-01-04T05:11:38.444Z,958.65
2019-01-04T05:12:38.342Z,958.64
2019-01-04T05:13:38.237Z,958.66
2019-01-04T05:14:38.132Z,958.64
2019-01-04T05:15:38.048Z,958.59
2019-01-04T05:16:37.930Z,958.62
2019-01-04T05:17:37.825Z,958.59
2019-01-04T05:18:37.718Z,958.61
2019-01-04T05:19:37.616Z,958.59
2019-01-04T05:20:37.527Z,958.58
2019-01-04T05:21:37.409Z,958.57
2019-01-04T05:22:37.299Z,958.55
2019-01-04T05:23:37.197Z,958.55
2019-01-04T05:24:37.091Z,958.59
2019-01-04T05:25:37.012Z,958.56
2019-01-04T05:26:36.895Z,958.52
2019-01-04T05:27:36.782Z,958.50
2019-01-04T05:28:36.676Z,958.53
2019-01-04T05:29:36.574Z,958.47
2019-01-04T05:30:36.485Z,958.46
2019-01-04T05:31:36.367Z,958.52
2019-01-04T05:32:36.268Z,958.54
2019-01-04T05:33:36.163Z,958.48
2019-01-04T05:34:36.060Z,958.47
2019-01-04T05:35:35.963Z,958.46
2019-01-04T05:36:35.845Z,958.48
2019-01-04T05:37:35.742Z,958.48
2019-01-04T05:38:35.637Z,958.47
2019-01-04T05:39:35.535Z,958.45
2019-01-04T05:40:35.429Z,958.45
2019-01-04T05:41:35.345Z,958.47
2019-01-04T05:42:35.226Z,958.49
2019-01-04T05:43:35.116Z,958.49
2019-01-04T05:44:35.013Z,958.44
2019-01-04T05:45:34.912Z,958.45
2019-01-04T05:46:34.823Z,958.48
2019-01-04T05:47:34.701Z,958.42
2019-01-04T05:48:34.598Z,958.43
2019-01-04T05:49:34.492Z,958.40
2019-01-04T05:50:34.399Z,958.42
2019-01-04T05:51:34.304Z,958.42
2019-01-04T05:52:34.180Z,958.41
2019-01-04T05:53:34.077Z,958.38
2019-01-04T05:54:33.975Z,958.39
2019-01-04T05:55:33.873Z,958.40
2019-01-04T05:56:33.783Z,958.38
2019-01-04T05:57:33.662Z,958.38
2019-01-04T05:58:33.561Z,958.36
2019-01-04T05:59:33.454Z,958.39
2019-01-04T06:00:33.350Z,958.38
2019-01-04T06:01:33.275Z,958.40
2019-01-04T06:02:33.142Z,958.41
2019-01-04T06:03:33.037Z,958.41
2019-01-04T06:04:33.037Z,958.44
2019-01-04T06:05:32.839Z,958.48
2019-01-04T06:06:32.747Z,958.46
2019-01-04T06:07:32.626Z,958.49
2019-01-04T06:08:32.521Z,958.48
2019-01-04T06:09:32.416Z,958.51
2019-01-04T06:10:32.317Z,958.54
2019-01-04T06:11:32.329Z,958.53
2019-01-04T06:12:32.105Z,958.52
2019-01-04T06:13:32.000Z,958.56
2019-01-04T06:14:31.901Z,958.52
2019-01-04T06:15:31.796Z,958.51
2019-01-04T06:16:31.705Z,958.56
2019-01-04T06:17:31.582Z,958.53
2019-01-04T06:18:31.581Z,958.56
2019-01-04T06:19:31.374Z,958.55
2019-01-04T06:20:31.270Z,958.54
2019-01-04T06:21:31.187Z,958.54
2019-01-04T06:22:31.068Z,958.52
2019-01-04T06:23:30.965Z,958.55
2019-01-04T06:24:30.855Z,958.61
2019-01-04T06:25:30.854Z,958.53
2019-01-04T06:26:30.665Z,958.57
2019-01-04T06:27:30.542Z,958.62
2019-01-04T06:28:30.445Z,958.55
2019-01-04T06:29:30.339Z,958.60
2019-01-04T06:30:30.237Z,958.60
2019-01-04T06:31:30.143Z,958.59
2019-01-04T06:32:30.128Z,958.60
2019-01-04T06:33:29.924Z,958.57
2019-01-04T06:34:29.817Z,958.64
2019-01-04T06:35:29.748Z,958.61
2019-01-04T06:36:29.628Z,958.65
2019-01-04T06:37:29.503Z,958.65
2019-01-04T06:38:29.399Z,958.69
2019-01-04T06:39:29.297Z,958.70
2019-01-04T06:40:29.194Z,958.70
2019-01-04T06:41:29.108Z,958.67
2019-01-04T06:42:28.987Z,958.68
2019-01-04T06:43:28.881Z,958.70
2019-01-04T06:44:28.775Z,958.71
2019-01-04T06:45:28.673Z,958.71
2019-01-04T06:46:28.590Z,958.75
2019-01-04T06:47:28.463Z,958.73
2019-01-04T06:48:28.358Z,958.74
2019-01-04T06:49:28.255Z,958.69
2019-01-04T06:50:28.151Z,958.68
2019-01-04T06:51:28.111Z,958.70
2019-01-04T06:52:27.946Z,958.70
2019-01-04T06:53:27.866Z,958.72
2019-01-04T06:54:27.740Z,958.70
2019-01-04T06:55:27.633Z,958.74
2019-01-04T06:56:27.546Z,958.72
2019-01-04T06:57:27.422Z,958.73
2019-01-04T06:58:27.320Z,958.75
2019-01-04T06:59:27.214Z,958.69
2019-01-04T07:00:27.113Z,958.73
2019-01-04T07:01:27.022Z,958.77
2019-01-04T07:02:26.903Z,958.75
2019-01-04T07:03:26.797Z,958.73
2019-01-04T07:04:26.696Z,958.71
2019-01-04T07:05:26.598Z,958.73
2019-01-04T07:06:26.505Z,958.78
2019-01-04T07:07:26.380Z,958.77
2019-01-04T07:08:26.280Z,958.77
2019-01-04T07:09:26.174Z,958.80
2019-01-04T07:10:26.072Z,958.80
2019-01-04T07:11:25.980Z,958.86
2019-01-04T07:12:25.864Z,958.87
2019-01-04T07:13:25.760Z,958.86
2019-01-04T07:14:25.654Z,958.89
2019-01-04T07:15:25.647Z,958.86
2019-01-04T07:16:25.460Z,958.80
2019-01-04T07:17:25.343Z,958.77
2019-01-04T07:18:25.241Z,958.81
2019-01-04T07:19:25.132Z,958.80
2019-01-04T07:20:25.027Z,958.81
2019-01-04T07:21:24.954Z,958.80
2019-01-04T07:22:24.923Z,958.75
2019-01-04T07:23:24.718Z,958.73
2019-01-04T07:24:24.611Z,958.73
2019-01-04T07:25:24.511Z,958.70
2019-01-04T07:26:24.409Z,958.73
2019-01-04T07:27:24.322Z,958.74
2019-01-04T07:28:24.323Z,958.81
2019-01-04T07:29:24.090Z,958.87
2019-01-04T07:30:23.993Z,958.86
2019-01-04T07:31:23.887Z,958.87
2019-01-04T07:32:23.799Z,958.87
2019-01-04T07:33:23.679Z,958.89
2019-01-04T07:34:23.573Z,958.87
2019-01-04T07:35:23.469Z,958.91
2019-01-04T07:36:23.370Z,958.91
2019-01-04T07:37:23.278Z,958.92
2019-01-04T07:38:23.159Z,958.93
2019-01-04T07:39:23.054Z,958.91
2019-01-04T07:40:22.949Z,958.87
2019-01-04T07:41:22.850Z,958.87
2019-01-04T07:42:22.753Z,958.92
2019-01-04T07:43:22.635Z,958.88
2019-01-04T07:44:22.529Z,958.89
2019-01-04T07:45:22.426Z,958.87
2019-01-04T07:46:22.326Z,958.85
2019-01-04T07:47:22.232Z,958.78
2019-01-04T07:48:22.129Z,958.85
2019-01-04T07:49:22.010Z,958.85
2019-01-04T07:50:21.906Z,958.86
2019-01-04T07:51:21.804Z,958.81
2019-01-04T07:52:21.718Z,958.83
2019-01-04T07:53:21.593Z,958.86
2019-01-04T07:54:21.493Z,958.83
2019-01-04T07:55:21.386Z,958.81
2019-01-04T07:56:21.288Z,958.82
2019-01-04T07:57:21.195Z,958.78
2019-01-04T07:58:21.075Z,958.81
2019-01-04T07:59:20.972Z,958.85
2019-01-04T08:00:20.867Z,958.87
2019-01-04T08:01:20.760Z,958.87
2019-01-04T08:02:20.676Z,958.94
2019-01-04T08:03:20.555Z,958.96
2019-01-04T08:04:20.448Z,958.97
2019-01-04T08:05:20.348Z,958.97
2019-01-04T08:06:20.245Z,958.93
2019-01-04T08:07:20.156Z,958.96
2019-01-04T08:08:20.033Z,958.98
2019-01-04T08:09:19.928Z,958.95
2019-01-04T08:10:19.836Z,958.97
2019-01-04T08:11:19.720Z,958.94
2019-01-04T08:12:19.637Z,958.99
2019-01-04T08:13:19.520Z,958.99
2019-01-04T08:14:19.415Z,959.01
2019-01-04T08:15:19.309Z,959.02
2019-01-04T08:16:19.217Z,959.04
2019-01-04T08:17:19.113Z,958.99
2019-01-04T08:18:18.994Z,959.03
2019-01-04T08:19:18.895Z,958.99
2019-01-04T08:20:18.793Z,959.00
2019-01-04T08:21:18.691Z,959.04
2019-01-04T08:22:18.599Z,959.06
2019-01-04T08:23:18.480Z,959.07
2019-01-04T08:24:18.372Z,959.07
2019-01-04T08:25:18.289Z,959.09
2019-01-04T08:26:18.165Z,959.10
2019-01-04T08:27:18.080Z,959.08
2019-01-04T08:28:17.956Z,959.10
2019-01-04T08:29:17.856Z,959.12
2019-01-04T08:30:17.757Z,959.09
2019-01-04T08:31:17.649Z,959.06
2019-01-04T08:32:17.559Z,959.03
2019-01-04T08:33:17.443Z,959.07
2019-01-04T08:34:17.338Z,959.06
2019-01-04T08:35:17.234Z,959.10
2019-01-04T08:36:17.131Z,959.05
2019-01-04T08:37:17.046Z,959.10
2019-01-04T08:38:16.921Z,959.13
2019-01-04T08:39:16.817Z,959.10
2019-01-04T08:40:16.717Z,959.15
2019-01-04T08:41:16.609Z,959.20
2019-01-04T08:42:16.525Z,959.17
2019-01-04T08:43:16.404Z,959.14
2019-01-04T08:44:16.301Z,959.09
2019-01-04T08:45:16.297Z,959.12
2019-01-04T08:46:16.096Z,959.02
2019-01-04T08:47:16.007Z,958.99
2019-01-04T08:48:15.885Z,959.02
2019-01-04T08:49:15.780Z,959.00
2019-01-04T08:50:15.693Z,958.94
2019-01-04T08:51:15.576Z,958.95
2019-01-04T08:52:15.485Z,958.96
2019-01-04T08:53:15.367Z,959.00
2019-01-04T08:54:15.266Z,958.96
2019-01-04T08:55:15.160Z,958.91
2019-01-04T08:56:15.055Z,958.90
2019-01-04T08:57:14.972Z,958.90
2019-01-04T08:58:14.853Z,958.91
2019-01-04T08:59:14.750Z,958.91
2019-01-04T09:00:14.644Z,958.86
2019-01-04T09:01:14.541Z,958.87
2019-01-04T09:02:14.455Z,958.85
2019-01-04T09:03:14.330Z,958.84
2019-01-04T09:04:14.229Z,958.87
2019-01-04T09:05:14.127Z,958.90
2019-01-04T09:06:14.126Z,958.92
2019-01-04T09:07:13.932Z,958.90
2019-01-04T09:08:13.816Z,958.89
2019-01-04T09:09:14.078Z,958.92
2019-01-04T09:10:13.609Z,958.95
2019-01-04T09:11:13.504Z,958.94
2019-01-04T09:12:13.402Z,958.92
2019-01-04T09:13:13.318Z,958.89
2019-01-04T09:14:13.196Z,958.87
2019-01-04T09:15:13.089Z,958.93
2019-01-04T09:16:12.987Z,958.97
2019-01-04T09:17:12.884Z,958.99
2019-01-04T09:18:12.798Z,958.97
2019-01-04T09:19:12.678Z,958.98
2019-01-04T09:20:12.700Z,958.96
2019-01-04T09:21:12.470Z,958.95
2019-01-04T09:22:12.370Z,958.97
2019-01-04T09:23:12.277Z,958.99
2019-01-04T09:24:12.157Z,958.94
2019-01-04T09:25:12.060Z,958.97
2019-01-04T09:26:11.953Z,958.92
2019-01-04T09:27:11.953Z,958.86
2019-01-04T09:28:17.822Z,958.86
2019-01-04T09:29:11.645Z,958.83
2019-01-04T09:30:11.538Z,958.78
2019-01-04T09:31:11.437Z,958.75
2019-01-04T09:32:11.335Z,958.75
2019-01-04T09:33:11.244Z,958.72
2019-01-04T09:34:11.229Z,958.71
2019-01-04T09:35:11.021Z,958.68
2019-01-04T09:36:10.918Z,958.65
2019-01-04T09:37:10.817Z,958.66
2019-01-04T09:38:10.731Z,958.66
2019-01-04T09:39:10.607Z,958.65
2019-01-04T09:40:10.504Z,958.61
2019-01-04T09:41:10.505Z,958.67
2019-01-04T09:42:10.299Z,958.59
2019-01-04T09:43:10.217Z,958.56
2019-01-04T09:44:10.093Z,958.54
2019-01-04T09:45:09.988Z,958.53
2019-01-04T09:46:09.891Z,958.55
2019-01-04T09:47:09.780Z,958.53
2019-01-04T09:48:09.822Z,958.52
2019-01-04T09:49:09.576Z,958.51
2019-01-04T09:50:09.476Z,958.48
2019-01-04T09:51:09.370Z,958.46
2019-01-04T09:52:09.266Z,958.46
2019-01-04T09:53:09.181Z,958.37
2019-01-04T09:54:09.064Z,958.36
2019-01-04T09:55:09.063Z,958.36
2019-01-04T09:56:08.858Z,958.37
2019-01-04T09:57:08.750Z,958.23
2019-01-04T09:58:08.669Z,958.27
2019-01-04T09:59:08.542Z,958.18
2019-01-04T10:00:08.451Z,958.14
2019-01-04T10:01:08.340Z,958.11
2019-01-04T10:02:08.346Z,958.06
2019-01-04T10:03:08.146Z,958.00
2019-01-04T10:04:08.032Z,958.04
2019-01-04T10:05:07.926Z,958.06
2019-01-04T10:06:07.953Z,958.07
2019-01-04T10:07:07.731Z,958.11
2019-01-04T10:08:07.635Z,958.07
2019-01-04T10:09:07.615Z,958.10
2019-01-04T10:10:07.411Z,958.13
2019-01-04T10:11:07.309Z,958.16
2019-01-04T10:12:07.203Z,958.12
2019-01-04T10:13:07.119Z,958.13
2019-01-04T10:14:07.041Z,958.11
2019-01-04T10:15:06.894Z,958.13
2019-01-04T10:16:06.896Z,958.04
2019-01-04T10:17:06.690Z,958.04
2019-01-04T10:18:06.617Z,958.03
2019-01-04T10:19:06.484Z,957.95
2019-01-04T10:20:06.381Z,957.94
2019-01-04T10:21:06.276Z,957.91
2019-01-04T10:22:06.301Z,957.94
2019-01-04T10:23:06.090Z,957.97
2019-01-04T10:24:05.970Z,958.00
2019-01-04T10:25:05.867Z,958.00
2019-01-04T10:26:05.760Z,958.01
2019-01-04T10:27:05.661Z,957.98
2019-01-04T10:28:05.571Z,957.88
2019-01-04T10:29:05.459Z,957.89
2019-01-04T10:30:05.352Z,957.82
2019-01-04T10:31:05.244Z,957.80
2019-01-04T10:32:05.148Z,957.77
2019-01-04T10:33:05.056Z,957.79
2019-01-04T10:34:04.938Z,957.76
2019-01-04T10:35:10.324Z,957.77
2019-01-04T10:36:04.732Z,957.72
2019-01-04T10:37:04.631Z,957.75
2019-01-04T10:38:04.539Z,957.70
2019-01-04T10:39:04.421Z,957.73
2019-01-04T10:40:04.319Z,957.68
2019-01-04T10:41:04.220Z,957.67
2019-01-04T10:42:04.132Z,957.62
2019-01-04T10:43:04.029Z,957.55
2019-01-04T10:44:03.908Z,957.55
2019-01-04T10:45:03.801Z,957.53
2019-01-04T10:46:03.705Z,957.52
2019-01-04T10:47:03.597Z,957.52
2019-01-04T10:48:03.511Z,957.57
2019-01-04T10:49:03.390Z,957.55
2019-01-04T10:50:03.291Z,957.56
2019-01-04T10:51:03.190Z,957.56
2019-01-04T10:52:03.090Z,957.59
2019-01-04T10:53:03.006Z,957.59
2019-01-04T10:54:02.880Z,957.60
2019-01-04T10:55:02.770Z,957.58
2019-01-04T10:56:02.678Z,957.58
2019-01-04T10:57:02.573Z,957.60
2019-01-04T10:58:02.472Z,957.59
2019-01-04T10:59:02.378Z,957.56
2019-01-04T11:00:02.266Z,957.51
2019-01-04T11:01:02.166Z,957.51
2019-01-04T11:02:02.059Z,957.50
2019-01-04T11:03:01.967Z,957.39
2019-01-04T11:04:01.847Z,957.39
2019-01-04T11:05:01.752Z,957.34
2019-01-04T11:06:01.646Z,957.32
2019-01-04T11:07:01.541Z,957.31
2019-01-04T11:08:01.444Z,957.30
2019-01-04T11:09:01.353Z,957.26
2019-01-04T11:10:01.233Z,957.20
2019-01-04T11:11:01.129Z,957.21
2019-01-04T11:12:01.026Z,957.14
2019-01-04T11:13:00.928Z,957.10
2019-01-04T11:14:00.835Z,957.09
2019-01-04T11:15:00.734Z,957.01
2019-01-04T11:16:00.618Z,957.07
2019-01-04T11:17:00.514Z,957.07
2019-01-04T11:18:00.415Z,957.01
2019-01-04T11:19:00.321Z,957.02
2019-01-04T11:20:00.208Z,957.04
2019-01-04T11:21:00.101Z,957.03
2019-01-04T11:21:59.998Z,957.04
2019-01-04T11:22:59.893Z,957.00
2019-01-04T11:23:59.806Z,957.04
2019-01-04T11:24:59.687Z,956.99
2019-01-04T11:25:59.586Z,956.94
2019-01-04T11:26:59.483Z,956.95
2019-01-04T11:27:59.384Z,956.97
2019-01-04T11:28:59.298Z,956.92
2019-01-04T11:29:59.172Z,956.92
2019-01-04T11:30:59.071Z,956.96
2019-01-04T11:31:59.071Z,956.89
2019-01-04T11:32:58.866Z,956.83
2019-01-04T11:33:58.776Z,956.86
2019-01-04T11:34:58.656Z,956.77
2019-01-04T11:35:58.559Z,956.81
2019-01-04T11:36:58.455Z,956.76
2019-01-04T11:37:58.349Z,956.75
2019-01-04T11:38:58.262Z,956.73
2019-01-04T11:39:58.150Z,956.73
2019-01-04T11:40:58.039Z,956.63
2019-01-04T11:41:57.940Z,956.59
2019-01-04T11:42:57.834Z,956.55
2019-01-04T11:43:57.749Z,956.54
2019-01-04T11:44:57.630Z,956.50
2019-01-04T11:45:57.629Z,956.50
2019-01-04T11:46:57.426Z,956.50
2019-01-04T11:47:57.322Z,956.47
2019-01-04T11:48:57.236Z,956.44
2019-01-04T11:49:57.113Z,956.39
2019-01-04T11:50:57.014Z,956.35
2019-01-04T11:51:56.909Z,956.28
2019-01-04T11:52:56.909Z,956.24
2019-01-04T11:53:56.721Z,956.24
2019-01-04T11:54:56.600Z,956.10
2019-01-04T11:55:56.500Z,956.07
2019-01-04T11:56:56.395Z,956.12
2019-01-04T11:57:56.290Z,956.11
2019-01-04T11:58:56.208Z,956.15
2019-01-04T11:59:56.194Z,956.18
2019-01-04T12:00:55.984Z,956.20
2019-01-04T12:01:55.878Z,956.23
2019-01-04T12:02:55.774Z,956.17
2019-01-04T12:03:55.695Z,956.16
2019-01-04T12:04:55.574Z,956.17
2019-01-04T12:05:55.468Z,956.06
2019-01-04T12:06:55.456Z,956.03
2019-01-04T12:07:55.263Z,955.98
2019-01-04T12:08:55.177Z,955.93
2019-01-04T12:09:55.058Z,955.92
2019-01-04T12:10:54.950Z,955.89
2019-01-04T12:11:54.848Z,955.86
2019-01-04T12:12:54.751Z,955.90
2019-01-04T12:13:54.762Z,955.91
2019-01-04T12:14:54.543Z,955.90
2019-01-04T12:15:54.442Z,955.89
2019-01-04T12:16:54.332Z,955.88
2019-01-04T12:17:54.231Z,955.92
2019-01-04T12:18:54.144Z,955.85
2019-01-04T12:19:54.027Z,955.80
2019-01-04T12:20:53.924Z,955.86
2019-01-04T12:21:53.822Z,955.78
2019-01-04T12:22:53.718Z,955.75
2019-01-04T12:23:53.628Z,955.70
2019-01-04T12:24:53.513Z,955.74
2019-01-04T12:25:53.405Z,955.71
2019-01-04T12:26:53.312Z,955.64